createdAt,value
2019-02-15T00:00:50.795Z,3.70
2019-02-15T00:01:50.776Z,3.64
2019-02-15T00:02:50.761Z,3.68
2019-02-15T00:03:50.755Z,3.53
2019-02-15T00:04:50.791Z,3.59
2019-02-15T00:05:50.732Z,3.50
2019-02-15T00:06:50.728Z,3.49
2019-02-15T00:07:50.718Z,3.56
2019-02-15T00:08:50.702Z,3.52
2019-02-15T00:09:50.687Z,3.45
2019-02-15T00:10:50.706Z,3.45
2019-02-15T00:11:50.674Z,3.45
2019-02-15T00:12:50.658Z,3.46
2019-02-15T00:13:50.654Z,3.57
2019-02-15T00:14:50.633Z,3.41
2019-02-15T00:15:50.629Z,3.44
2019-02-15T00:16:50.621Z,3.37
2019-02-15T00:17:50.614Z,3.37
2019-02-15T00:18:50.596Z,3.39
2019-02-15T00:19:50.591Z,3.31
2019-02-15T00:20:50.577Z,3.22
2019-02-15T00:21:50.615Z,3.33
2019-02-15T00:22:50.547Z,3.23
2019-02-15T00:23:50.542Z,3.20
2019-02-15T00:24:50.526Z,3.30
2019-02-15T00:25:50.597Z,3.22
2019-02-15T00:26:50.504Z,3.22
2019-02-15T00:27:50.499Z,3.20
2019-02-15T00:28:50.482Z,3.23
2019-02-15T00:29:50.475Z,3.28
2019-02-15T00:30:50.462Z,3.23
2019-02-15T00:31:50.461Z,3.20
2019-02-15T00:32:50.441Z,3.28
2019-02-15T00:33:50.431Z,3.22
2019-02-15T00:34:50.425Z,3.16
2019-02-15T00:35:50.407Z,3.19
2019-02-15T00:36:50.442Z,3.08
2019-02-15T00:37:50.386Z,3.12
2019-02-15T00:38:50.387Z,3.17
2019-02-15T00:39:50.370Z,3.10
2019-02-15T00:40:50.353Z,3.13
2019-02-15T00:41:50.350Z,3.12
2019-02-15T00:42:50.342Z,3.10
2019-02-15T00:43:50.327Z,3.08
2019-02-15T00:44:50.316Z,3.07
2019-02-15T00:45:50.310Z,3.02
2019-02-15T00:46:50.301Z,3.02
2019-02-15T00:47:50.288Z,3.02
2019-02-15T00:48:50.272Z,2.98
2019-02-15T00:49:50.263Z,2.92
2019-02-15T00:50:50.249Z,3.02
2019-02-15T00:51:50.245Z,2.94
2019-02-15T00:52:50.240Z,2.98
2019-02-15T00:53:50.217Z,3.05
2019-02-15T00:54:50.214Z,2.95
2019-02-15T00:55:50.200Z,2.90
2019-02-15T00:56:50.192Z,2.92
2019-02-15T00:57:50.172Z,2.90
2019-02-15T00:58:50.175Z,2.92
2019-02-15T00:59:50.151Z,2.80
2019-02-15T01:00:50.142Z,2.89
2019-02-15T01:01:50.136Z,2.89
2019-02-15T01:02:50.123Z,2.84
2019-02-15T01:03:50.117Z,2.86
2019-02-15T01:04:50.102Z,2.84
2019-02-15T01:05:50.091Z,2.90
2019-02-15T01:06:50.080Z,2.86
2019-02-15T01:07:50.065Z,2.87
2019-02-15T01:08:50.097Z,2.86
2019-02-15T01:09:50.049Z,2.84
2019-02-15T01:10:50.039Z,2.89
2019-02-15T01:11:50.026Z,2.79
2019-02-15T01:12:50.012Z,2.84
2019-02-15T01:13:50.006Z,2.83
2019-02-15T01:14:50.002Z,2.83
2019-02-15T01:15:49.982Z,2.74
2019-02-15T01:16:49.973Z,2.81
2019-02-15T01:17:49.965Z,2.77
2019-02-15T01:18:49.953Z,2.71
2019-02-15T01:19:49.948Z,2.73
2019-02-15T01:20:49.926Z,2.79
2019-02-15T01:21:49.915Z,2.73
2019-02-15T01:22:49.905Z,2.71
2019-02-15T01:23:49.901Z,2.73
2019-02-15T01:24:49.884Z,2.66
2019-02-15T01:25:49.886Z,2.71
2019-02-15T01:26:49.862Z,2.71
2019-02-15T01:27:49.852Z,2.69
2019-02-15T01:28:49.841Z,2.74
2019-02-15T01:29:49.830Z,2.74
2019-02-15T01:30:49.864Z,2.69
2019-02-15T01:31:49.813Z,2.65
2019-02-15T01:32:49.804Z,2.65
2019-02-15T01:33:49.787Z,2.58
2019-02-15T01:34:49.788Z,2.63
2019-02-15T01:35:49.788Z,2.61
2019-02-15T01:36:49.804Z,2.63
2019-02-15T01:37:49.747Z,2.66
2019-02-15T01:38:49.752Z,2.62
2019-02-15T01:39:49.739Z,2.62
2019-02-15T01:40:49.718Z,2.73
2019-02-15T01:41:49.710Z,2.76
2019-02-15T01:42:49.705Z,2.61
2019-02-15T01:43:49.682Z,2.61
2019-02-15T01:44:49.688Z,2.62
2019-02-15T01:45:49.662Z,2.61
2019-02-15T01:46:49.653Z,2.66
2019-02-15T01:47:49.657Z,2.69
2019-02-15T01:48:49.637Z,2.71
2019-02-15T01:49:49.623Z,2.66
2019-02-15T01:50:49.612Z,2.62
2019-02-15T01:51:49.602Z,2.51
2019-02-15T01:52:49.598Z,2.50
2019-02-15T01:53:49.595Z,2.45
2019-02-15T01:54:49.570Z,2.50
2019-02-15T01:55:49.561Z,2.47
2019-02-15T01:56:49.549Z,2.47
2019-02-15T01:57:49.543Z,2.45
2019-02-15T01:58:49.561Z,2.53
2019-02-15T01:59:49.519Z,2.48
2019-02-15T02:00:49.504Z,2.44
2019-02-15T02:01:49.492Z,2.41
2019-02-15T02:02:49.482Z,2.41
2019-02-15T02:03:49.472Z,2.45
2019-02-15T02:04:49.468Z,2.43
2019-02-15T02:05:49.454Z,2.43
2019-02-15T02:06:49.444Z,2.45
2019-02-15T02:07:49.429Z,2.43
2019-02-15T02:08:49.418Z,2.38
2019-02-15T02:09:49.417Z,2.43
2019-02-15T02:10:49.406Z,2.38
2019-02-15T02:11:49.386Z,2.38
2019-02-15T02:12:49.376Z,2.45
2019-02-15T02:13:50.086Z,2.47
2019-02-15T02:14:49.363Z,2.43
2019-02-15T02:15:49.362Z,2.43
2019-02-15T02:16:49.334Z,2.47
2019-02-15T02:17:49.331Z,2.43
2019-02-15T02:18:49.318Z,2.41
2019-02-15T02:19:49.312Z,2.41
2019-02-15T02:20:49.296Z,2.41
2019-02-15T02:21:49.314Z,2.44
2019-02-15T02:22:49.320Z,2.37
2019-02-15T02:23:49.268Z,2.29
2019-02-15T02:24:49.251Z,2.40
2019-02-15T02:25:49.245Z,2.36
2019-02-15T02:26:49.239Z,2.26
2019-02-15T02:27:49.266Z,2.18
2019-02-15T02:28:49.209Z,2.18
2019-02-15T02:29:49.198Z,2.04
2019-02-15T02:30:50.303Z,2.12
2019-02-15T02:31:56.211Z,2.08
2019-02-15T02:32:49.170Z,2.09
2019-02-15T02:33:49.165Z,2.08
2019-02-15T02:34:49.145Z,2.04
2019-02-15T02:35:49.140Z,2.12
2019-02-15T02:36:49.132Z,2.15
2019-02-15T02:37:49.114Z,2.14
2019-02-15T02:38:49.126Z,2.12
2019-02-15T02:39:49.093Z,2.11
2019-02-15T02:40:49.106Z,2.09
2019-02-15T02:41:49.077Z,2.02
2019-02-15T02:42:49.076Z,1.98
2019-02-15T02:43:59.237Z,1.98
2019-02-15T02:44:50.052Z,1.95
2019-02-15T02:45:49.042Z,1.95
2019-02-15T02:46:49.037Z,1.95
2019-02-15T02:47:49.017Z,1.93
2019-02-15T02:48:49.009Z,1.88
2019-02-15T02:49:48.995Z,1.98
2019-02-15T02:50:48.983Z,2.02
2019-02-15T02:51:48.982Z,2.08
2019-02-15T02:52:48.975Z,2.02
2019-02-15T02:53:48.956Z,2.04
2019-02-15T02:54:48.935Z,1.93
2019-02-15T02:55:48.936Z,1.98
2019-02-15T02:56:48.919Z,2.08
2019-02-15T02:57:48.907Z,1.98
2019-02-15T02:58:48.894Z,2.07
2019-02-15T02:59:48.883Z,2.07
2019-02-15T03:00:48.901Z,2.08
2019-02-15T03:01:48.866Z,2.08
2019-02-15T03:02:48.854Z,2.11
2019-02-15T03:03:48.844Z,2.07
2019-02-15T03:04:48.836Z,2.04
2019-02-15T03:05:48.835Z,2.05
2019-02-15T03:06:48.814Z,2.05
2019-02-15T03:07:48.798Z,2.14
2019-02-15T03:08:48.789Z,2.07
2019-02-15T03:09:48.777Z,2.05
2019-02-15T03:10:48.786Z,2.04
2019-02-15T03:11:48.772Z,2.02
2019-02-15T03:12:48.745Z,2.09
2019-02-15T03:13:48.734Z,2.07
2019-02-15T03:14:48.731Z,2.09
2019-02-15T03:15:48.714Z,1.98
2019-02-15T03:16:48.707Z,1.92
2019-02-15T03:17:48.697Z,1.95
2019-02-15T03:18:48.687Z,1.92
2019-02-15T03:19:48.678Z,1.95
2019-02-15T03:20:48.674Z,1.93
2019-02-15T03:21:48.657Z,1.92
2019-02-15T03:22:48.710Z,1.89
2019-02-15T03:23:48.634Z,1.89
2019-02-15T03:24:48.618Z,1.85
2019-02-15T03:25:48.613Z,1.88
2019-02-15T03:26:48.601Z,1.86
2019-02-15T03:27:48.591Z,1.88
2019-02-15T03:28:48.586Z,1.88
2019-02-15T03:29:48.572Z,1.79
2019-02-15T03:30:48.555Z,1.86
2019-02-15T03:31:48.543Z,1.81
2019-02-15T03:32:48.539Z,1.79
2019-02-15T03:33:48.565Z,1.82
2019-02-15T03:34:48.520Z,1.82
2019-02-15T03:35:48.513Z,1.88
2019-02-15T03:36:48.495Z,1.89
2019-02-15T03:37:48.483Z,1.86
2019-02-15T03:38:48.469Z,1.82
2019-02-15T03:39:48.474Z,1.82
2019-02-15T03:40:48.460Z,1.79
2019-02-15T03:41:48.449Z,1.75
2019-02-15T03:42:48.447Z,1.79
2019-02-15T03:43:48.422Z,1.77
2019-02-15T03:44:48.409Z,1.74
2019-02-15T03:45:48.408Z,1.75
2019-02-15T03:46:48.396Z,1.74
2019-02-15T03:47:48.389Z,1.79
2019-02-15T03:48:48.364Z,1.83
2019-02-15T03:49:48.368Z,1.77
2019-02-15T03:50:48.368Z,1.70
2019-02-15T03:51:48.334Z,1.77
2019-02-15T03:52:48.334Z,1.77
2019-02-15T03:53:48.311Z,1.79
2019-02-15T03:54:48.312Z,1.82
2019-02-15T03:55:48.301Z,1.81
2019-02-15T03:56:48.280Z,1.70
2019-02-15T03:57:48.286Z,1.61
2019-02-15T03:58:48.270Z,1.70
2019-02-15T03:59:48.255Z,1.70
2019-02-15T04:00:48.248Z,1.74
2019-02-15T04:01:48.231Z,1.64
2019-02-15T04:02:48.215Z,1.72
2019-02-15T04:03:48.213Z,1.64
2019-02-15T04:04:48.198Z,1.67
2019-02-15T04:05:48.204Z,1.65
2019-02-15T04:06:48.211Z,1.68
2019-02-15T04:07:48.168Z,1.68
2019-02-15T04:08:48.161Z,1.64
2019-02-15T04:09:48.139Z,1.61
2019-02-15T04:10:48.130Z,1.67
2019-02-15T04:11:48.120Z,1.67
2019-02-15T04:12:48.122Z,1.67
2019-02-15T04:13:48.101Z,1.60
2019-02-15T04:14:48.091Z,1.65
2019-02-15T04:15:48.093Z,1.60
2019-02-15T04:16:48.075Z,1.52
2019-02-15T04:17:48.062Z,1.50
2019-02-15T04:18:48.046Z,1.56
2019-02-15T04:19:48.033Z,1.54
2019-02-15T04:20:48.029Z,1.53
2019-02-15T04:21:48.018Z,1.63
2019-02-15T04:22:48.033Z,1.64
2019-02-15T04:23:47.997Z,1.60
2019-02-15T04:24:47.983Z,1.63
2019-02-15T04:25:47.983Z,1.53
2019-02-15T04:26:47.964Z,1.60
2019-02-15T04:27:47.953Z,1.49
2019-02-15T04:28:47.960Z,1.56
2019-02-15T04:29:47.927Z,1.53
2019-02-15T04:30:47.917Z,1.56
2019-02-15T04:31:47.912Z,1.63
2019-02-15T04:32:47.904Z,1.63
2019-02-15T04:33:47.893Z,1.53
2019-02-15T04:34:47.894Z,1.50
2019-02-15T04:35:47.861Z,1.57
2019-02-15T04:36:47.856Z,1.53
2019-02-15T04:37:47.851Z,1.53
2019-02-15T04:38:47.839Z,1.46
2019-02-15T04:39:47.823Z,1.44
2019-02-15T04:40:47.826Z,1.49
2019-02-15T04:41:47.807Z,1.50
2019-02-15T04:42:47.788Z,1.47
2019-02-15T04:43:47.811Z,1.35
2019-02-15T04:44:47.772Z,1.36
2019-02-15T04:45:50.841Z,1.47
2019-02-15T04:46:49.969Z,1.43
2019-02-15T04:47:47.734Z,1.35
2019-02-15T04:48:47.730Z,1.44
2019-02-15T04:49:47.745Z,1.49
2019-02-15T04:50:47.707Z,1.47
2019-02-15T04:51:47.698Z,1.50
2019-02-15T04:52:47.681Z,1.53
2019-02-15T04:53:47.677Z,1.49
2019-02-15T04:54:47.696Z,1.60
2019-02-15T04:55:47.659Z,1.56
2019-02-15T04:56:47.646Z,1.56
2019-02-15T04:57:47.633Z,1.50
2019-02-15T04:58:47.626Z,1.57
2019-02-15T04:59:47.615Z,1.56
2019-02-15T05:00:47.634Z,1.53
2019-02-15T05:01:47.595Z,1.60
2019-02-15T05:02:47.598Z,1.57
2019-02-15T05:03:47.571Z,1.60
2019-02-15T05:04:47.561Z,1.53
2019-02-15T05:05:47.567Z,1.56
2019-02-15T05:06:47.554Z,1.54
2019-02-15T05:07:47.536Z,1.50
2019-02-15T05:08:47.518Z,1.57
2019-02-15T05:09:47.510Z,1.56
2019-02-15T05:10:47.498Z,1.52
2019-02-15T05:11:47.489Z,1.57
2019-02-15T05:12:47.466Z,1.54
2019-02-15T05:13:47.459Z,1.49
2019-02-15T05:14:53.040Z,1.54
2019-02-15T05:15:48.438Z,1.49
2019-02-15T05:16:47.431Z,1.47
2019-02-15T05:17:47.422Z,1.42
2019-02-15T05:18:47.406Z,1.46
2019-02-15T05:19:47.400Z,1.46
2019-02-15T05:20:47.400Z,1.42
2019-02-15T05:21:47.372Z,1.47
2019-02-15T05:22:47.386Z,1.44
2019-02-15T05:23:47.358Z,1.38
2019-02-15T05:24:47.346Z,1.39
2019-02-15T05:25:47.340Z,1.43
2019-02-15T05:26:47.337Z,1.39
2019-02-15T05:27:47.313Z,1.39
2019-02-15T05:28:47.312Z,1.38
2019-02-15T05:29:47.291Z,1.39
2019-02-15T05:30:47.281Z,1.39
2019-02-15T05:31:47.270Z,1.36
2019-02-15T05:32:47.263Z,1.36
2019-02-15T05:33:47.293Z,1.34
2019-02-15T05:34:47.233Z,1.44
2019-02-15T05:35:47.232Z,1.36
2019-02-15T05:36:47.219Z,1.36
2019-02-15T05:37:47.208Z,1.29
2019-02-15T05:38:47.203Z,1.29
2019-02-15T05:39:47.202Z,1.28
2019-02-15T05:40:47.174Z,1.34
2019-02-15T05:41:47.163Z,1.29
2019-02-15T05:42:47.154Z,1.29
2019-02-15T05:43:47.141Z,1.31
2019-02-15T05:44:47.152Z,1.26
2019-02-15T05:45:47.120Z,1.25
2019-02-15T05:46:47.110Z,1.21
2019-02-15T05:47:47.103Z,1.11
2019-02-15T05:48:47.091Z,1.13
2019-02-15T05:49:47.113Z,1.11
2019-02-15T05:50:47.082Z,1.14
2019-02-15T05:51:47.635Z,1.08
2019-02-15T05:52:47.049Z,1.08
2019-02-15T05:53:47.032Z,1.06
2019-02-15T05:54:47.024Z,1.07
2019-02-15T05:55:47.023Z,1.11
2019-02-15T05:56:47.005Z,1.14
2019-02-15T05:57:46.992Z,1.16
2019-02-15T05:58:46.991Z,1.08
2019-02-15T05:59:46.968Z,1.10
2019-02-15T06:00:46.965Z,1.16
2019-02-15T06:01:47.111Z,1.07
2019-02-15T06:02:46.934Z,1.13
2019-02-15T06:03:47.309Z,1.17
2019-02-15T06:04:46.929Z,1.16
2019-02-15T06:05:46.904Z,1.17
2019-02-15T06:06:46.900Z,1.17
2019-02-15T06:07:46.896Z,1.14
2019-02-15T06:08:46.972Z,1.16
2019-02-15T06:09:46.864Z,1.16
2019-02-15T06:10:47.327Z,1.18
2019-02-15T06:11:47.231Z,1.10
2019-02-15T06:12:47.085Z,1.26
2019-02-15T06:13:46.829Z,1.24
2019-02-15T06:14:46.809Z,1.17
2019-02-15T06:15:46.805Z,1.10
2019-02-15T06:16:46.791Z,1.17
2019-02-15T06:17:46.791Z,1.11
2019-02-15T06:18:46.773Z,1.11
2019-02-15T06:19:46.769Z,1.13
2019-02-15T06:20:46.748Z,1.07
2019-02-15T06:21:46.741Z,1.06
2019-02-15T06:22:46.761Z,1.18
2019-02-15T06:23:46.722Z,1.13
2019-02-15T06:24:46.716Z,1.14
2019-02-15T06:25:46.698Z,1.14
2019-02-15T06:26:46.682Z,1.07
2019-02-15T06:27:46.676Z,1.17
2019-02-15T06:28:46.689Z,1.11
2019-02-15T06:29:46.651Z,1.08
2019-02-15T06:30:46.648Z,1.16
2019-02-15T06:31:46.712Z,1.04
2019-02-15T06:32:46.623Z,1.07
2019-02-15T06:33:46.613Z,1.02
2019-02-15T06:34:46.611Z,1.04
2019-02-15T06:35:46.590Z,1.08
2019-02-15T06:36:46.591Z,1.13
2019-02-15T06:37:46.572Z,1.13
2019-02-15T06:38:46.602Z,1.06
2019-02-15T06:39:46.549Z,1.07
2019-02-15T06:40:46.539Z,1.04
2019-02-15T06:41:46.524Z,1.10
2019-02-15T06:42:46.514Z,1.24
2019-02-15T06:43:46.509Z,1.14
2019-02-15T06:44:46.503Z,1.26
2019-02-15T06:45:46.482Z,1.20
2019-02-15T06:46:46.470Z,1.18
2019-02-15T06:47:46.469Z,1.29
2019-02-15T06:48:46.454Z,1.24
2019-02-15T06:49:46.460Z,1.13
2019-02-15T06:50:46.428Z,1.08
2019-02-15T06:51:46.433Z,1.11
2019-02-15T06:52:46.420Z,1.13
2019-02-15T06:53:46.400Z,1.11
2019-02-15T06:54:46.417Z,1.10
2019-02-15T06:55:46.374Z,1.10
2019-02-15T06:56:46.368Z,1.08
2019-02-15T06:57:46.354Z,0.98
2019-02-15T06:58:46.349Z,1.08
2019-02-15T06:59:46.339Z,1.08
2019-02-15T07:00:46.332Z,1.13
2019-02-15T07:01:46.339Z,1.10
2019-02-15T07:02:46.300Z,1.13
2019-02-15T07:03:46.295Z,1.11
2019-02-15T07:04:46.286Z,1.13
2019-02-15T07:05:46.288Z,1.10
2019-02-15T07:06:46.268Z,1.02
2019-02-15T07:07:46.255Z,1.10
2019-02-15T07:08:46.237Z,1.06
2019-02-15T07:09:46.231Z,1.14
2019-02-15T07:10:46.214Z,1.00
2019-02-15T07:11:46.275Z,1.00
2019-02-15T07:12:46.216Z,1.04
2019-02-15T07:13:46.182Z,1.11
2019-02-15T07:14:46.172Z,1.28
2019-02-15T07:15:46.169Z,1.39
2019-02-15T07:16:46.156Z,1.52
2019-02-15T07:17:46.149Z,1.60
2019-02-15T07:18:46.130Z,1.67
2019-02-15T07:19:46.120Z,1.81
2019-02-15T07:20:46.109Z,1.90
2019-02-15T07:21:46.106Z,1.93
2019-02-15T07:22:46.117Z,1.98
2019-02-15T07:23:46.088Z,2.02
2019-02-15T07:24:47.264Z,2.08
2019-02-15T07:25:46.062Z,2.08
2019-02-15T07:26:46.048Z,2.19
2019-02-15T07:27:46.046Z,2.19
2019-02-15T07:28:46.025Z,2.32
2019-02-15T07:29:46.023Z,2.43
2019-02-15T07:30:46.041Z,2.41
2019-02-15T07:31:45.993Z,2.48
2019-02-15T07:32:46.030Z,2.51
2019-02-15T07:33:45.983Z,2.55
2019-02-15T07:34:45.968Z,2.50
2019-02-15T07:35:45.953Z,2.51
2019-02-15T07:36:47.794Z,2.59
2019-02-15T07:37:45.934Z,2.53
2019-02-15T07:38:45.928Z,2.53
2019-02-15T07:39:45.913Z,2.47
2019-02-15T07:40:45.927Z,2.43
2019-02-15T07:41:45.890Z,2.45
2019-02-15T07:42:45.874Z,2.38
2019-02-15T07:43:45.891Z,2.44
2019-02-15T07:44:45.871Z,2.44
2019-02-15T07:45:45.849Z,2.38
2019-02-15T07:46:45.841Z,2.43
2019-02-15T07:47:45.844Z,2.38
2019-02-15T07:48:45.821Z,2.56
2019-02-15T07:49:45.814Z,2.66
2019-02-15T07:50:45.794Z,2.65
2019-02-15T07:51:45.787Z,2.73
2019-02-15T07:52:45.773Z,2.71
2019-02-15T07:53:45.769Z,2.81
2019-02-15T07:54:45.787Z,2.89
2019-02-15T07:55:45.734Z,3.08
2019-02-15T07:56:45.730Z,3.25
2019-02-15T07:57:45.718Z,3.31
2019-02-15T07:58:45.708Z,3.34
2019-02-15T07:59:45.705Z,3.60
2019-02-15T08:00:45.689Z,3.80
2019-02-15T08:01:45.679Z,3.90
2019-02-15T08:02:45.662Z,3.93
2019-02-15T08:03:45.696Z,3.98
2019-02-15T08:04:45.651Z,4.14
2019-02-15T08:05:45.637Z,4.07
2019-02-15T08:06:45.641Z,4.16
2019-02-15T08:07:45.614Z,4.20
2019-02-15T08:08:45.602Z,4.25
2019-02-15T08:09:45.586Z,4.59
2019-02-15T08:10:45.583Z,4.90
2019-02-15T08:11:45.574Z,4.91
2019-02-15T08:12:45.605Z,4.96
2019-02-15T08:13:45.547Z,5.04
2019-02-15T08:14:45.532Z,5.14
2019-02-15T08:15:51.526Z,5.27
2019-02-15T08:16:46.509Z,5.26
2019-02-15T08:17:45.511Z,5.27
2019-02-15T08:18:45.498Z,5.01
2019-02-15T08:19:45.484Z,5.02
2019-02-15T08:20:45.469Z,5.05
2019-02-15T08:21:45.494Z,5.30
2019-02-15T08:22:45.459Z,5.52
2019-02-15T08:23:45.445Z,5.69
2019-02-15T08:24:45.430Z,5.95
2019-02-15T08:25:45.427Z,6.11
2019-02-15T08:26:45.404Z,6.32
2019-02-15T08:27:45.445Z,6.21
2019-02-15T08:28:45.395Z,6.48
2019-02-15T08:29:45.373Z,6.55
2019-02-15T08:30:45.360Z,6.82
2019-02-15T08:31:52.428Z,6.86
2019-02-15T08:32:45.373Z,6.90
2019-02-15T08:33:45.330Z,6.94
2019-02-15T08:34:45.317Z,6.90
2019-02-15T08:35:45.308Z,7.05
2019-02-15T08:36:45.297Z,7.26
2019-02-15T08:37:45.290Z,7.44
2019-02-15T08:38:45.332Z,7.58
2019-02-15T08:39:45.270Z,7.51
2019-02-15T08:40:45.252Z,7.41
2019-02-15T08:42:00.602Z,7.29
2019-02-15T08:42:46.229Z,7.34
2019-02-15T08:43:45.312Z,7.47
2019-02-15T08:44:45.218Z,7.67
2019-02-15T08:45:45.203Z,7.67
2019-02-15T08:46:45.192Z,7.89
2019-02-15T08:47:45.181Z,8.24
2019-02-15T08:48:46.403Z,8.43
2019-02-15T08:49:45.196Z,8.64
2019-02-15T08:50:45.150Z,8.61
2019-02-15T08:51:45.141Z,8.65
2019-02-15T08:52:45.122Z,8.75
2019-02-15T08:53:45.119Z,8.82
2019-02-15T08:54:45.107Z,9.01
2019-02-15T08:55:45.115Z,9.13
2019-02-15T08:56:45.085Z,9.34
2019-02-15T08:57:45.066Z,9.48
2019-02-15T08:58:45.065Z,9.60
2019-02-15T08:59:45.050Z,9.86
2019-02-15T09:00:45.044Z,10.16
2019-02-15T09:01:45.028Z,10.55
2019-02-15T09:02:45.016Z,11.03
2019-02-15T09:03:45.007Z,11.56
2019-02-15T09:04:45.016Z,11.90
2019-02-15T09:05:45.086Z,12.22
2019-02-15T09:06:44.971Z,12.43
2019-02-15T09:07:44.969Z,12.71
2019-02-15T09:08:44.950Z,12.87
2019-02-15T09:09:44.943Z,13.01
2019-02-15T09:10:44.967Z,13.07
2019-02-15T09:11:44.921Z,13.03
2019-02-15T09:12:44.908Z,13.03
2019-02-15T09:13:44.899Z,12.98
2019-02-15T09:14:44.886Z,13.17
2019-02-15T09:15:44.870Z,13.39
2019-02-15T09:16:44.901Z,13.54
2019-02-15T09:17:44.850Z,13.80
2019-02-15T09:18:44.842Z,13.96
2019-02-15T09:19:44.831Z,13.76
2019-02-15T09:20:44.819Z,13.93
2019-02-15T09:21:44.803Z,13.79
2019-02-15T09:22:44.807Z,13.57
2019-02-15T09:23:44.784Z,13.61
2019-02-15T09:24:44.773Z,13.63
2019-02-15T09:25:44.763Z,13.51
2019-02-15T09:26:44.754Z,13.50
2019-02-15T09:27:44.759Z,13.39
2019-02-15T09:28:44.728Z,13.09
2019-02-15T09:29:44.717Z,12.89
2019-02-15T09:30:44.712Z,12.88
2019-02-15T09:31:44.696Z,12.84
2019-02-15T09:32:44.684Z,12.91
2019-02-15T09:33:44.695Z,12.92
2019-02-15T09:34:44.662Z,12.88
2019-02-15T09:35:44.651Z,12.87
2019-02-15T09:36:44.640Z,12.73
2019-02-15T09:37:44.639Z,12.66
2019-02-15T09:38:44.628Z,12.69
2019-02-15T09:39:44.607Z,12.67
2019-02-15T09:40:44.599Z,12.79
2019-02-15T09:41:44.590Z,12.81
2019-02-15T09:42:44.575Z,12.77
2019-02-15T09:43:44.572Z,12.76
2019-02-15T09:44:44.558Z,12.87
2019-02-15T09:45:44.553Z,12.84
2019-02-15T09:46:44.537Z,12.81
2019-02-15T09:47:44.521Z,12.77
2019-02-15T09:48:44.536Z,12.85
2019-02-15T09:49:45.235Z,12.69
2019-02-15T09:50:44.497Z,12.88
2019-02-15T09:51:44.478Z,12.98
2019-02-15T09:52:44.466Z,13.16
2019-02-15T09:53:44.462Z,13.12
2019-02-15T09:54:44.462Z,12.96
2019-02-15T09:55:44.436Z,12.96
2019-02-15T09:56:44.426Z,13.09
2019-02-15T09:57:44.417Z,13.25
2019-02-15T09:58:44.401Z,13.41
2019-02-15T09:59:44.413Z,13.63
2019-02-15T10:00:44.384Z,13.69
2019-02-15T10:01:44.375Z,13.73
2019-02-15T10:02:44.366Z,13.75
2019-02-15T10:03:44.353Z,13.80
2019-02-15T10:04:44.344Z,13.88
2019-02-15T10:05:44.382Z,13.76
2019-02-15T10:06:44.319Z,13.83
2019-02-15T10:07:44.303Z,13.66
2019-02-15T10:08:44.297Z,13.50
2019-02-15T10:09:44.286Z,13.62
2019-02-15T10:10:44.292Z,13.63
2019-02-15T10:11:44.268Z,13.73
2019-02-15T10:12:44.276Z,13.79
2019-02-15T10:13:44.250Z,13.90
2019-02-15T10:14:44.232Z,14.01
2019-02-15T10:15:44.226Z,14.08
2019-02-15T10:16:44.214Z,14.12
2019-02-15T10:17:44.208Z,13.94
2019-02-15T10:18:44.189Z,13.88
2019-02-15T10:19:44.172Z,13.80
2019-02-15T10:20:44.163Z,13.76
2019-02-15T10:21:44.186Z,13.81
2019-02-15T10:22:44.140Z,13.69
2019-02-15T10:23:44.136Z,13.63
2019-02-15T10:24:44.120Z,13.87
2019-02-15T10:25:44.115Z,14.09
2019-02-15T10:26:44.104Z,14.20
2019-02-15T10:27:44.101Z,14.04
2019-02-15T10:28:44.073Z,13.84
2019-02-15T10:29:44.061Z,13.61
2019-02-15T10:30:44.050Z,13.68
2019-02-15T10:31:44.040Z,13.59
2019-02-15T10:32:44.038Z,13.68
2019-02-15T10:33:44.024Z,13.76
2019-02-15T10:34:44.013Z,13.94
2019-02-15T10:35:44.001Z,14.13
2019-02-15T10:36:43.997Z,14.29
2019-02-15T10:37:44.021Z,14.26
2019-02-15T10:38:43.980Z,14.27
2019-02-15T10:39:43.952Z,14.41
2019-02-15T10:40:43.946Z,14.49
2019-02-15T10:41:43.931Z,14.53
2019-02-15T10:42:43.917Z,14.42
2019-02-15T10:43:43.952Z,14.26
2019-02-15T10:44:43.898Z,14.12
2019-02-15T10:45:43.887Z,14.11
2019-02-15T10:46:43.873Z,14.08
2019-02-15T10:47:43.864Z,14.06
2019-02-15T10:48:43.857Z,14.23
2019-02-15T10:49:43.872Z,14.45
2019-02-15T10:50:43.834Z,14.59
2019-02-15T10:51:43.826Z,14.91
2019-02-15T10:52:43.812Z,14.97
2019-02-15T10:53:43.800Z,15.22
2019-02-15T10:54:43.789Z,15.46
2019-02-15T10:55:43.788Z,15.28
2019-02-15T10:56:43.768Z,15.38
2019-02-15T10:57:43.759Z,15.28
2019-02-15T10:58:43.743Z,15.66
2019-02-15T10:59:43.748Z,15.80
2019-02-15T11:00:43.724Z,16.32
2019-02-15T11:01:43.725Z,16.26
2019-02-15T11:02:43.702Z,16.40
2019-02-15T11:03:43.691Z,16.50
2019-02-15T11:04:43.683Z,16.59
2019-02-15T11:05:43.670Z,16.78
2019-02-15T11:06:43.661Z,16.90
2019-02-15T11:07:43.649Z,17.07
2019-02-15T11:08:43.635Z,17.18
2019-02-15T11:09:43.630Z,17.02
2019-02-15T11:10:43.624Z,17.00
2019-02-15T11:11:43.605Z,17.09
2019-02-15T11:12:43.590Z,16.88
2019-02-15T11:13:43.581Z,16.78
2019-02-15T11:14:43.567Z,16.80
2019-02-15T11:15:43.595Z,16.82
2019-02-15T11:16:47.276Z,17.02
2019-02-15T11:17:43.535Z,17.40
2019-02-15T11:18:43.522Z,17.65
2019-02-15T11:19:43.512Z,17.68
2019-02-15T11:20:43.501Z,17.74
2019-02-15T11:21:43.504Z,17.91
2019-02-15T11:22:43.486Z,17.77
2019-02-15T11:23:43.468Z,17.73
2019-02-15T11:24:43.458Z,17.73
2019-02-15T11:25:43.453Z,17.76
2019-02-15T11:26:43.462Z,17.86
2019-02-15T11:27:43.442Z,17.57
2019-02-15T11:28:43.415Z,17.65
2019-02-15T11:29:43.403Z,17.81
2019-02-15T11:30:43.398Z,18.16
2019-02-15T11:31:43.390Z,18.41
2019-02-15T11:32:43.378Z,18.94
2019-02-15T11:33:43.365Z,19.06
2019-02-15T11:34:43.353Z,19.15
2019-02-15T11:35:43.337Z,19.43
2019-02-15T11:36:43.346Z,19.55
2019-02-15T11:37:43.322Z,19.65
2019-02-15T11:38:43.305Z,19.60
2019-02-15T11:39:43.300Z,19.95
2019-02-15T11:40:43.289Z,19.94
2019-02-15T11:41:43.407Z,20.00
2019-02-15T11:42:43.268Z,20.07
2019-02-15T11:43:43.251Z,19.98
2019-02-15T11:44:43.261Z,19.75
2019-02-15T11:45:43.244Z,19.90
2019-02-15T11:46:43.224Z,19.55
2019-02-15T11:47:43.250Z,19.17
2019-02-15T11:48:43.200Z,18.75
2019-02-15T11:49:43.187Z,18.23
2019-02-15T11:50:43.182Z,17.65
2019-02-15T11:51:43.170Z,17.14
2019-02-15T11:52:43.154Z,17.00
2019-02-15T11:53:43.155Z,16.84
2019-02-15T11:54:43.137Z,16.51
2019-02-15T11:55:43.121Z,16.44
2019-02-15T11:56:43.113Z,16.52
2019-02-15T11:57:43.099Z,16.47
2019-02-15T11:58:43.103Z,16.54
2019-02-15T11:59:43.083Z,16.70
2019-02-15T12:00:43.073Z,16.78
2019-02-15T12:01:43.065Z,16.88
2019-02-15T12:02:43.055Z,16.82
2019-02-15T12:03:43.053Z,16.90
2019-02-15T12:04:43.027Z,16.96
2019-02-15T12:05:43.018Z,17.17
2019-02-15T12:06:43.011Z,17.66
2019-02-15T12:07:43.000Z,18.14
2019-02-15T12:08:42.981Z,18.65
2019-02-15T12:09:42.977Z,18.91
2019-02-15T12:10:42.959Z,19.47
2019-02-15T12:11:42.955Z,19.52
2019-02-15T12:12:42.942Z,19.98
2019-02-15T12:13:42.931Z,20.40
2019-02-15T12:14:43.021Z,20.90
2019-02-15T12:15:42.904Z,21.34
2019-02-15T12:16:42.914Z,21.74
2019-02-15T12:17:42.882Z,22.01
2019-02-15T12:18:42.870Z,22.23
2019-02-15T12:19:42.865Z,21.64
2019-02-15T12:20:42.890Z,21.55
2019-02-15T12:21:42.845Z,21.86
2019-02-15T12:22:42.835Z,22.29
2019-02-15T12:23:42.824Z,22.19
2019-02-15T12:24:42.813Z,22.52
2019-02-15T12:25:42.799Z,22.52
2019-02-15T12:26:42.833Z,22.72
2019-02-15T12:27:42.786Z,22.67
2019-02-15T12:28:42.820Z,22.63
2019-02-15T12:29:42.758Z,22.81
2019-02-15T12:30:42.754Z,22.91
2019-02-15T12:31:42.738Z,23.31
2019-02-15T12:32:42.727Z,23.41
2019-02-15T12:33:42.718Z,23.42
2019-02-15T12:34:42.702Z,23.44
2019-02-15T12:35:42.697Z,23.15
2019-02-15T12:36:42.685Z,23.19
2019-02-15T12:37:42.672Z,23.09
2019-02-15T12:38:42.670Z,22.84
2019-02-15T12:39:42.655Z,22.44
2019-02-15T12:40:42.639Z,22.42
2019-02-15T12:41:42.633Z,22.66
2019-02-15T12:42:42.620Z,22.76
2019-02-15T12:43:42.611Z,22.96
2019-02-15T12:44:42.597Z,22.91
2019-02-15T12:45:42.589Z,23.01
2019-02-15T12:46:42.637Z,23.31
2019-02-15T12:47:42.564Z,23.41
2019-02-15T12:48:42.552Z,23.54
2019-02-15T12:49:42.537Z,23.64
2019-02-15T12:50:42.533Z,23.64
2019-02-15T12:51:42.518Z,23.72
2019-02-15T12:52:42.515Z,23.64
2019-02-15T12:53:42.497Z,23.74
2019-02-15T12:54:42.486Z,23.68
2019-02-15T12:55:42.478Z,23.57
2019-02-15T12:56:42.463Z,23.49
2019-02-15T12:57:42.462Z,23.39
2019-02-15T12:58:42.452Z,23.32
2019-02-15T12:59:42.443Z,23.16
2019-02-15T13:00:42.427Z,22.82
2019-02-15T13:01:42.411Z,22.61
2019-02-15T13:02:42.401Z,22.21
2019-02-15T13:03:42.408Z,22.04
2019-02-15T13:04:42.384Z,21.77
2019-02-15T13:05:42.369Z,21.52
2019-02-15T13:06:43.194Z,21.48
2019-02-15T13:07:42.348Z,21.34
2019-02-15T13:08:42.354Z,21.22
2019-02-15T13:09:42.337Z,20.91
2019-02-15T13:10:42.321Z,20.90